sensor_id;sensor_type;location;lat;lon;timestamp;temperature;humidity
81210;DHT22;70685;52.496;13.420;2023-09-30T00:01:46;18.10;72.40
81210;DHT22;70685;52.496;13.420;2023-09-30T00:04:11;18.20;71.90
81210;DHT22;70685;52.496;13.420;2023-09-30T00:06:39;18.20;71.70
81210;DHT22;70685;52.496;13.420;2023-09-30T00:09:05;18.20;69.40
81210;DHT22;70685;52.496;13.420;2023-09-30T00:11:30;18.20;68.50
81210;DHT22;70685;52.496;13.420;2023-09-30T00:13:56;18.20;68.30
81210;DHT22;70685;52.496;13.420;2023-09-30T00:16:21;18.10;68.40
81210;DHT22;70685;52.496;13.420;2023-09-30T00:18:47;18.10;67.90
81210;DHT22;70685;52.496;13.420;2023-09-30T00:21:13;18.10;67.50
81210;DHT22;70685;52.496;13.420;2023-09-30T00:23:40;18.10;67.20
81210;DHT22;70685;52.496;13.420;2023-09-30T00:26:06;18.00;66.90
81210;DHT22;70685;52.496;13.420;2023-09-30T00:28:34;17.90;66.60
81210;DHT22;70685;52.496;13.420;2023-09-30T00:31:07;17.70;66.30
81210;DHT22;70685;52.496;13.420;2023-09-30T00:33:34;17.60;66.50
81210;DHT22;70685;52.496;13.420;2023-09-30T00:36:09;17.70;65.40
81210;DHT22;70685;52.496;13.420;2023-09-30T00:38:36;17.60;66.10
81210;DHT22;70685;52.496;13.420;2023-09-30T00:41:01;17.50;65.80
81210;DHT22;70685;52.496;13.420;2023-09-30T00:43:27;17.50;66.10
81210;DHT22;70685;52.496;13.420;2023-09-30T00:46:06;17.40;66.60
81210;DHT22;70685;52.496;13.420;2023-09-30T00:48:34;17.30;66.50
81210;DHT22;70685;52.496;13.420;2023-09-30T00:51:01;17.20;67.00
81210;DHT22;70685;52.496;13.420;2023-09-30T00:53:27;17.20;67.20
81210;DHT22;70685;52.496;13.420;2023-09-30T00:55:55;17.10;67.80
81210;DHT22;70685;52.496;13.420;2023-09-30T00:58:24;17.10;67.60
81210;DHT22;70685;52.496;13.420;2023-09-30T01:00:55;17.00;67.90
81210;DHT22;70685;52.496;13.420;2023-09-30T01:03:24;17.00;67.90
81210;DHT22;70685;52.496;13.420;2023-09-30T01:05:50;17.00;67.80
81210;DHT22;70685;52.496;13.420;2023-09-30T01:08:17;16.90;67.80
81210;DHT22;70685;52.496;13.420;2023-09-30T01:10:45;16.90;67.60
81210;DHT22;70685;52.496;13.420;2023-09-30T01:13:14;16.80;68.00
81210;DHT22;70685;52.496;13.420;2023-09-30T01:15:39;16.70;68.20
81210;DHT22;70685;52.496;13.420;2023-09-30T01:18:05;16.60;68.50
81210;DHT22;70685;52.496;13.420;2023-09-30T01:20:31;16.60;68.60
81210;DHT22;70685;52.496;13.420;2023-09-30T01:23:03;16.50;68.90
81210;DHT22;70685;52.496;13.420;2023-09-30T01:25:29;16.60;68.50
81210;DHT22;70685;52.496;13.420;2023-09-30T01:27:55;16.60;68.60
81210;DHT22;70685;52.496;13.420;2023-09-30T01:30:21;16.60;68.10
81210;DHT22;70685;52.496;13.420;2023-09-30T01:32:48;16.50;68.20
81210;DHT22;70685;52.496;13.420;2023-09-30T01:35:14;16.50;68.10
81210;DHT22;70685;52.496;13.420;2023-09-30T01:37:42;16.50;68.10
81210;DHT22;70685;52.496;13.420;2023-09-30T01:40:08;16.40;68.10
81210;DHT22;70685;52.496;13.420;2023-09-30T01:42:37;16.40;68.10
81210;DHT22;70685;52.496;13.420;2023-09-30T01:45:03;16.30;68.20
81210;DHT22;70685;52.496;13.420;2023-09-30T01:47:29;16.20;68.30
81210;DHT22;70685;52.496;13.420;2023-09-30T01:49:57;16.10;68.60
81210;DHT22;70685;52.496;13.420;2023-09-30T01:52:22;16.10;68.60
81210;DHT22;70685;52.496;13.420;2023-09-30T01:54:48;16.20;68.60
81210;DHT22;70685;52.496;13.420;2023-09-30T01:57:14;16.10;68.40
81210;DHT22;70685;52.496;13.420;2023-09-30T01:59:39;16.20;68.40
81210;DHT22;70685;52.496;13.420;2023-09-30T02:02:07;16.20;68.10
81210;DHT22;70685;52.496;13.420;2023-09-30T02:04:36;16.10;68.40
81210;DHT22;70685;52.496;13.420;2023-09-30T02:07:04;16.10;68.50
81210;DHT22;70685;52.496;13.420;2023-09-30T02:09:32;16.10;68.80
81210;DHT22;70685;52.496;13.420;2023-09-30T02:11:58;16.10;68.80
81210;DHT22;70685;52.496;13.420;2023-09-30T02:14:23;16.10;69.10
81210;DHT22;70685;52.496;13.420;2023-09-30T02:16:51;16.10;68.70
81210;DHT22;70685;52.496;13.420;2023-09-30T02:19:17;16.00;69.00
81210;DHT22;70685;52.496;13.420;2023-09-30T02:21:47;16.00;69.50
81210;DHT22;70685;52.496;13.420;2023-09-30T02:24:14;16.00;69.30
81210;DHT22;70685;52.496;13.420;2023-09-30T02:26:43;16.00;69.00
81210;DHT22;70685;52.496;13.420;2023-09-30T02:29:08;15.90;69.40
81210;DHT22;70685;52.496;13.420;2023-09-30T02:31:34;15.90;69.40
81210;DHT22;70685;52.496;13.420;2023-09-30T02:34:00;15.90;69.30
81210;DHT22;70685;52.496;13.420;2023-09-30T02:36:29;15.90;69.60
81210;DHT22;70685;52.496;13.420;2023-09-30T02:38:59;15.90;69.70
81210;DHT22;70685;52.496;13.420;2023-09-30T02:41:26;15.80;69.90
81210;DHT22;70685;52.496;13.420;2023-09-30T02:43:56;15.80;70.10
81210;DHT22;70685;52.496;13.420;2023-09-30T02:46:22;15.70;70.60
81210;DHT22;70685;52.496;13.420;2023-09-30T02:48:47;15.80;70.60
81210;DHT22;70685;52.496;13.420;2023-09-30T02:51:15;15.80;70.30
81210;DHT22;70685;52.496;13.420;2023-09-30T02:53:43;15.80;70.60
81210;DHT22;70685;52.496;13.420;2023-09-30T02:56:09;15.70;70.80
81210;DHT22;70685;52.496;13.420;2023-09-30T02:58:36;15.80;70.90
81210;DHT22;70685;52.496;13.420;2023-09-30T03:01:06;15.70;71.10
81210;DHT22;70685;52.496;13.420;2023-09-30T03:03:32;15.60;71.60
81210;DHT22;70685;52.496;13.420;2023-09-30T03:05:59;15.60;71.60
81210;DHT22;70685;52.496;13.420;2023-09-30T03:08:26;15.60;71.80
81210;DHT22;70685;52.496;13.420;2023-09-30T03:10:52;15.60;72.00
81210;DHT22;70685;52.496;13.420;2023-09-30T03:13:18;15.40;72.20
81210;DHT22;70685;52.496;13.420;2023-09-30T03:15:47;15.50;72.30
81210;DHT22;70685;52.496;13.420;2023-09-30T03:18:17;15.40;72.60
81210;DHT22;70685;52.496;13.420;2023-09-30T03:20:43;15.50;72.30
81210;DHT22;70685;52.496;13.420;2023-09-30T03:23:15;15.40;72.40
81210;DHT22;70685;52.496;13.420;2023-09-30T03:25:41;15.40;72.70
81210;DHT22;70685;52.496;13.420;2023-09-30T03:28:10;15.40;72.70
81210;DHT22;70685;52.496;13.420;2023-09-30T03:30:35;15.40;72.20
81210;DHT22;70685;52.496;13.420;2023-09-30T03:33:04;15.40;72.60
81210;DHT22;70685;52.496;13.420;2023-09-30T03:35:30;15.40;72.80
81210;DHT22;70685;52.496;13.420;2023-09-30T03:37:55;15.40;72.60
81210;DHT22;70685;52.496;13.420;2023-09-30T03:40:21;15.30;72.90
81210;DHT22;70685;52.496;13.420;2023-09-30T03:42:53;15.30;73.00
81210;DHT22;70685;52.496;13.420;2023-09-30T03:45:19;15.30;73.00
81210;DHT22;70685;52.496;13.420;2023-09-30T03:47:45;15.30;72.90
81210;DHT22;70685;52.496;13.420;2023-09-30T03:50:13;15.30;73.20
81210;DHT22;70685;52.496;13.420;2023-09-30T03:52:41;15.30;73.00
81210;DHT22;70685;52.496;13.420;2023-09-30T03:55:10;15.30;73.00
81210;DHT22;70685;52.496;13.420;2023-09-30T03:57:39;15.30;72.90
81210;DHT22;70685;52.496;13.420;2023-09-30T04:00:05;15.20;73.00
81210;DHT22;70685;52.496;13.420;2023-09-30T04:02:41;15.30;73.00
81210;DHT22;70685;52.496;13.420;2023-09-30T04:05:08;15.30;72.70
81210;DHT22;70685;52.496;13.420;2023-09-30T04:07:37;15.30;72.50
81210;DHT22;70685;52.496;13.420;2023-09-30T04:10:06;15.30;72.40
81210;DHT22;70685;52.496;13.420;2023-09-30T04:12:31;15.30;72.80
81210;DHT22;70685;52.496;13.420;2023-09-30T04:15:00;15.30;72.60
81210;DHT22;70685;52.496;13.420;2023-09-30T04:17:28;15.30;72.80
81210;DHT22;70685;52.496;13.420;2023-09-30T04:19:53;15.20;72.90
81210;DHT22;70685;52.496;13.420;2023-09-30T04:22:19;15.20;73.10
81210;DHT22;70685;52.496;13.420;2023-09-30T04:24:46;15.20;73.20
81210;DHT22;70685;52.496;13.420;2023-09-30T04:27:14;15.20;73.10
81210;DHT22;70685;52.496;13.420;2023-09-30T04:29:43;15.20;73.30
81210;DHT22;70685;52.496;13.420;2023-09-30T04:32:11;15.20;72.90
81210;DHT22;70685;52.496;13.420;2023-09-30T04:34:39;15.10;73.00
81210;DHT22;70685;52.496;13.420;2023-09-30T04:37:10;15.10;73.30
81210;DHT22;70685;52.496;13.420;2023-09-30T04:39:36;15.10;73.30
81210;DHT22;70685;52.496;13.420;2023-09-30T04:42:02;15.00;73.50
81210;DHT22;70685;52.496;13.420;2023-09-30T04:44:29;15.00;73.70
81210;DHT22;70685;52.496;13.420;2023-09-30T04:46:56;14.90;74.20
81210;DHT22;70685;52.496;13.420;2023-09-30T04:49:24;14.80;74.50
81210;DHT22;70685;52.496;13.420;2023-09-30T04:51:50;14.80;74.30
81210;DHT22;70685;52.496;13.420;2023-09-30T04:54:15;14.80;74.50
81210;DHT22;70685;52.496;13.420;2023-09-30T04:56:41;14.70;74.60
81210;DHT22;70685;52.496;13.420;2023-09-30T04:59:06;14.80;74.90
81210;DHT22;70685;52.496;13.420;2023-09-30T05:01:32;14.70;74.80
81210;DHT22;70685;52.496;13.420;2023-09-30T05:04:00;14.80;74.70
81210;DHT22;70685;52.496;13.420;2023-09-30T05:06:26;14.70;74.70
81210;DHT22;70685;52.496;13.420;2023-09-30T05:08:52;14.80;74.20
81210;DHT22;70685;52.496;13.420;2023-09-30T05:11:17;14.90;73.90
81210;DHT22;70685;52.496;13.420;2023-09-30T05:13:44;14.90;73.70
81210;DHT22;70685;52.496;13.420;2023-09-30T05:16:10;14.90;73.40
81210;DHT22;70685;52.496;13.420;2023-09-30T05:18:38;14.90;73.30
81210;DHT22;70685;52.496;13.420;2023-09-30T05:21:04;14.90;73.70
81210;DHT22;70685;52.496;13.420;2023-09-30T05:23:34;14.90;73.80
81210;DHT22;70685;52.496;13.420;2023-09-30T05:26:01;14.80;73.70
81210;DHT22;70685;52.496;13.420;2023-09-30T05:28:29;14.90;73.30
81210;DHT22;70685;52.496;13.420;2023-09-30T05:30:54;14.90;73.30
81210;DHT22;70685;52.496;13.420;2023-09-30T05:33:21;14.90;73.30
81210;DHT22;70685;52.496;13.420;2023-09-30T05:35:51;14.90;73.30
81210;DHT22;70685;52.496;13.420;2023-09-30T05:38:19;14.90;73.60
81210;DHT22;70685;52.496;13.420;2023-09-30T05:40:45;14.90;73.10
81210;DHT22;70685;52.496;13.420;2023-09-30T05:43:14;14.90;73.20
81210;DHT22;70685;52.496;13.420;2023-09-30T05:45:39;15.10;72.80
81210;DHT22;70685;52.496;13.420;2023-09-30T05:48:19;15.10;72.70
81210;DHT22;70685;52.496;13.420;2023-09-30T05:50:50;15.20;72.20
81210;DHT22;70685;52.496;13.420;2023-09-30T05:53:17;15.10;72.10
81210;DHT22;70685;52.496;13.420;2023-09-30T05:55:52;15.20;72.30
81210;DHT22;70685;52.496;13.420;2023-09-30T05:58:19;15.30;72.20
81210;DHT22;70685;52.496;13.420;2023-09-30T06:00:49;15.40;71.60
81210;DHT22;70685;52.496;13.420;2023-09-30T06:03:16;15.50;71.40
81210;DHT22;70685;52.496;13.420;2023-09-30T06:05:42;15.70;70.90
81210;DHT22;70685;52.496;13.420;2023-09-30T06:08:09;15.80;70.50
81210;DHT22;70685;52.496;13.420;2023-09-30T06:10:40;15.90;70.80
81210;DHT22;70685;52.496;13.420;2023-09-30T06:13:08;16.10;69.40
81210;DHT22;70685;52.496;13.420;2023-09-30T06:15:36;16.30;69.00
81210;DHT22;70685;52.496;13.420;2023-09-30T06:18:02;16.40;67.90
81210;DHT22;70685;52.496;13.420;2023-09-30T06:20:29;16.60;67.70
81210;DHT22;70685;52.496;13.420;2023-09-30T06:22:58;16.70;67.10
81210;DHT22;70685;52.496;13.420;2023-09-30T06:25:26;16.80;66.90
81210;DHT22;70685;52.496;13.420;2023-09-30T06:27:53;16.80;66.90
81210;DHT22;70685;52.496;13.420;2023-09-30T06:30:27;16.80;66.50
81210;DHT22;70685;52.496;13.420;2023-09-30T06:33:02;16.70;67.00
81210;DHT22;70685;52.496;13.420;2023-09-30T06:35:33;16.70;66.70
81210;DHT22;70685;52.496;13.420;2023-09-30T06:38:06;16.60;66.80
81210;DHT22;70685;52.496;13.420;2023-09-30T06:40:45;16.50;67.20
81210;DHT22;70685;52.496;13.420;2023-09-30T06:43:15;16.60;67.10
81210;DHT22;70685;52.496;13.420;2023-09-30T06:45:44;16.60;67.00
81210;DHT22;70685;52.496;13.420;2023-09-30T06:48:14;16.60;66.90
81210;DHT22;70685;52.496;13.420;2023-09-30T06:50:44;16.60;67.10
81210;DHT22;70685;52.496;13.420;2023-09-30T06:53:17;16.80;66.80
81210;DHT22;70685;52.496;13.420;2023-09-30T06:55:51;16.90;66.40
81210;DHT22;70685;52.496;13.420;2023-09-30T06:58:17;17.10;65.50
81210;DHT22;70685;52.496;13.420;2023-09-30T07:00:47;17.20;65.50
81210;DHT22;70685;52.496;13.420;2023-09-30T07:03:15;17.40;64.70
81210;DHT22;70685;52.496;13.420;2023-09-30T07:05:43;17.50;64.30
81210;DHT22;70685;52.496;13.420;2023-09-30T07:08:16;17.50;63.90
81210;DHT22;70685;52.496;13.420;2023-09-30T07:10:58;17.50;63.60
81210;DHT22;70685;52.496;13.420;2023-09-30T07:13:24;17.70;64.00
81210;DHT22;70685;52.496;13.420;2023-09-30T07:15:56;18.00;62.00
81210;DHT22;70685;52.496;13.420;2023-09-30T07:18:27;18.20;61.60
81210;DHT22;70685;52.496;13.420;2023-09-30T07:20:56;18.40;60.70
81210;DHT22;70685;52.496;13.420;2023-09-30T07:23:22;18.90;59.40
81210;DHT22;70685;52.496;13.420;2023-09-30T07:26:00;19.10;58.80
81210;DHT22;70685;52.496;13.420;2023-09-30T07:28:26;19.40;58.50
81210;DHT22;70685;52.496;13.420;2023-09-30T07:30:53;19.40;58.00
81210;DHT22;70685;52.496;13.420;2023-09-30T07:33:26;19.20;58.50
81210;DHT22;70685;52.496;13.420;2023-09-30T07:35:54;19.10;58.80
81210;DHT22;70685;52.496;13.420;2023-09-30T07:38:21;19.20;59.30
81210;DHT22;70685;52.496;13.420;2023-09-30T07:40:48;19.20;58.20
81210;DHT22;70685;52.496;13.420;2023-09-30T07:43:14;19.20;58.30
81210;DHT22;70685;52.496;13.420;2023-09-30T07:45:43;19.30;58.10
81210;DHT22;70685;52.496;13.420;2023-09-30T07:48:35;19.30;58.00
81210;DHT22;70685;52.496;13.420;2023-09-30T07:51:09;19.00;58.40
81210;DHT22;70685;52.496;13.420;2023-09-30T07:53:39;19.10;58.90
81210;DHT22;70685;52.496;13.420;2023-09-30T07:56:06;19.00;58.90
81210;DHT22;70685;52.496;13.420;2023-09-30T07:58:56;18.90;58.70
81210;DHT22;70685;52.496;13.420;2023-09-30T08:01:22;18.70;59.60
81210;DHT22;70685;52.496;13.420;2023-09-30T08:03:48;18.60;60.00
81210;DHT22;70685;52.496;13.420;2023-09-30T08:06:15;18.40;60.40
81210;DHT22;70685;52.496;13.420;2023-09-30T08:08:41;18.20;61.10
81210;DHT22;70685;52.496;13.420;2023-09-30T08:11:09;18.10;61.70
81210;DHT22;70685;52.496;13.420;2023-09-30T08:13:35;18.00;61.70
81210;DHT22;70685;52.496;13.420;2023-09-30T08:16:03;18.10;61.60
81210;DHT22;70685;52.496;13.420;2023-09-30T08:18:32;18.20;61.60
81210;DHT22;70685;52.496;13.420;2023-09-30T08:21:15;18.40;60.80
81210;DHT22;70685;52.496;13.420;2023-09-30T08:23:41;18.90;59.50
81210;DHT22;70685;52.496;13.420;2023-09-30T08:26:14;19.40;57.60
81210;DHT22;70685;52.496;13.420;2023-09-30T08:31:46;20.50;55.10
81210;DHT22;70685;52.496;13.420;2023-09-30T08:34:12;21.50;52.90
81210;DHT22;70685;52.496;13.420;2023-09-30T08:36:40;22.20;50.00
81210;DHT22;70685;52.496;13.420;2023-09-30T08:39:09;23.00;49.40
81210;DHT22;70685;52.496;13.420;2023-09-30T08:41:38;23.90;46.20
81210;DHT22;70685;52.496;13.420;2023-09-30T08:44:04;24.50;44.90
81210;DHT22;70685;52.496;13.420;2023-09-30T08:46:33;24.20;44.00
81210;DHT22;70685;52.496;13.420;2023-09-30T08:49:04;23.60;45.40
81210;DHT22;70685;52.496;13.420;2023-09-30T08:51:30;23.20;46.80
81210;DHT22;70685;52.496;13.420;2023-09-30T08:53:57;23.70;45.90
81210;DHT22;70685;52.496;13.420;2023-09-30T08:56:33;24.30;44.10
81210;DHT22;70685;52.496;13.420;2023-09-30T08:59:12;24.30;43.70
81210;DHT22;70685;52.496;13.420;2023-09-30T09:01:41;23.80;45.10
81210;DHT22;70685;52.496;13.420;2023-09-30T09:04:07;23.30;46.50
81210;DHT22;70685;52.496;13.420;2023-09-30T09:06:33;22.90;47.20
81210;DHT22;70685;52.496;13.420;2023-09-30T09:09:15;23.20;47.10
81210;DHT22;70685;52.496;13.420;2023-09-30T09:11:52;24.10;45.00
81210;DHT22;70685;52.496;13.420;2023-09-30T09:14:17;24.80;43.30
81210;DHT22;70685;52.496;13.420;2023-09-30T09:16:58;25.30;42.10
81210;DHT22;70685;52.496;13.420;2023-09-30T09:19:24;25.60;40.70
81210;DHT22;70685;52.496;13.420;2023-09-30T09:24:42;26.40;39.30
81210;DHT22;70685;52.496;13.420;2023-09-30T09:27:13;26.60;38.90
81210;DHT22;70685;52.496;13.420;2023-09-30T09:29:43;26.80;38.60
81210;DHT22;70685;52.496;13.420;2023-09-30T09:34:41;27.00;38.10
81210;DHT22;70685;52.496;13.420;2023-09-30T09:39:57;27.20;37.10
81210;DHT22;70685;52.496;13.420;2023-09-30T09:42:32;27.30;36.90
81210;DHT22;70685;52.496;13.420;2023-09-30T09:45:00;27.70;36.60
81210;DHT22;70685;52.496;13.420;2023-09-30T09:47:26;28.20;35.70
81210;DHT22;70685;52.496;13.420;2023-09-30T09:49:52;28.30;35.70
81210;DHT22;70685;52.496;13.420;2023-09-30T09:52:19;28.10;35.70
81210;DHT22;70685;52.496;13.420;2023-09-30T09:54:48;28.40;35.40
81210;DHT22;70685;52.496;13.420;2023-09-30T09:57:18;28.80;34.90
81210;DHT22;70685;52.496;13.420;2023-09-30T09:59:45;28.80;33.80
81210;DHT22;70685;52.496;13.420;2023-09-30T10:02:21;28.90;34.00
81210;DHT22;70685;52.496;13.420;2023-09-30T10:04:48;28.50;34.10
81210;DHT22;70685;52.496;13.420;2023-09-30T10:07:19;28.30;34.90
81210;DHT22;70685;52.496;13.420;2023-09-30T10:09:49;28.10;35.90
81210;DHT22;70685;52.496;13.420;2023-09-30T10:12:19;28.40;34.80
81210;DHT22;70685;52.496;13.420;2023-09-30T10:14:47;28.80;34.80
81210;DHT22;70685;52.496;13.420;2023-09-30T10:17:15;29.30;33.60
81210;DHT22;70685;52.496;13.420;2023-09-30T10:22:28;27.80;34.90
81210;DHT22;70685;52.496;13.420;2023-09-30T10:24:56;26.90;35.70
81210;DHT22;70685;52.496;13.420;2023-09-30T10:29:48;27.00;35.70
81210;DHT22;70685;52.496;13.420;2023-09-30T10:32:15;27.40;36.00
81210;DHT22;70685;52.496;13.420;2023-09-30T10:34:48;27.90;34.70
81210;DHT22;70685;52.496;13.420;2023-09-30T10:37:24;28.20;34.00
81210;DHT22;70685;52.496;13.420;2023-09-30T10:39:57;28.10;34.00
81210;DHT22;70685;52.496;13.420;2023-09-30T10:42:49;28.40;34.20
81210;DHT22;70685;52.496;13.420;2023-09-30T10:51:14;27.70;33.60
81210;DHT22;70685;52.496;13.420;2023-09-30T10:53:48;27.40;34.10
81210;DHT22;70685;52.496;13.420;2023-09-30T10:56:14;27.20;35.20
81210;DHT22;70685;52.496;13.420;2023-09-30T11:01:15;27.40;34.10
81210;DHT22;70685;52.496;13.420;2023-09-30T11:03:45;27.60;34.00
81210;DHT22;70685;52.496;13.420;2023-09-30T11:06:15;27.80;33.50
81210;DHT22;70685;52.496;13.420;2023-09-30T11:08:59;27.80;33.30
81210;DHT22;70685;52.496;13.420;2023-09-30T11:14:08;28.00;32.90
81210;DHT22;70685;52.496;13.420;2023-09-30T11:16:42;27.90;33.00
81210;DHT22;70685;52.496;13.420;2023-09-30T11:19:11;28.20;32.40
81210;DHT22;70685;52.496;13.420;2023-09-30T11:21:38;28.00;31.90
81210;DHT22;70685;52.496;13.420;2023-09-30T11:24:04;27.30;33.50
81210;DHT22;70685;52.496;13.420;2023-09-30T11:26:35;26.40;34.20
81210;DHT22;70685;52.496;13.420;2023-09-30T11:29:14;25.50;36.10
81210;DHT22;70685;52.496;13.420;2023-09-30T11:31:42;24.80;37.80
81210;DHT22;70685;52.496;13.420;2023-09-30T11:34:09;24.60;38.90
81210;DHT22;70685;52.496;13.420;2023-09-30T11:36:51;24.90;38.40
81210;DHT22;70685;52.496;13.420;2023-09-30T11:39:29;25.20;37.50
81210;DHT22;70685;52.496;13.420;2023-09-30T11:41:56;25.50;37.50
81210;DHT22;70685;52.496;13.420;2023-09-30T11:44:26;25.60;36.60
81210;DHT22;70685;52.496;13.420;2023-09-30T11:46:55;24.90;36.50
81210;DHT22;70685;52.496;13.420;2023-09-30T11:51:52;24.60;38.00
81210;DHT22;70685;52.496;13.420;2023-09-30T11:54:25;25.00;36.70
81210;DHT22;70685;52.496;13.420;2023-09-30T11:56:55;25.40;36.50
81210;DHT22;70685;52.496;13.420;2023-09-30T11:59:21;25.90;36.20
81210;DHT22;70685;52.496;13.420;2023-09-30T12:01:49;26.40;35.70
81210;DHT22;70685;52.496;13.420;2023-09-30T12:04:17;26.80;33.80
81210;DHT22;70685;52.496;13.420;2023-09-30T12:06:45;26.60;33.90
81210;DHT22;70685;52.496;13.420;2023-09-30T12:09:16;26.70;33.40
81210;DHT22;70685;52.496;13.420;2023-09-30T12:11:42;26.40;33.20
81210;DHT22;70685;52.496;13.420;2023-09-30T12:14:13;25.90;33.70
81210;DHT22;70685;52.496;13.420;2023-09-30T12:16:42;25.90;35.00
81210;DHT22;70685;52.496;13.420;2023-09-30T12:19:12;26.00;35.10
81210;DHT22;70685;52.496;13.420;2023-09-30T12:21:43;26.00;35.40
81210;DHT22;70685;52.496;13.420;2023-09-30T12:24:12;25.60;36.40
81210;DHT22;70685;52.496;13.420;2023-09-30T12:26:44;25.30;36.80
81210;DHT22;70685;52.496;13.420;2023-09-30T12:29:21;24.80;36.90
81210;DHT22;70685;52.496;13.420;2023-09-30T12:31:51;24.50;37.90
81210;DHT22;70685;52.496;13.420;2023-09-30T12:34:17;24.20;38.00
81210;DHT22;70685;52.496;13.420;2023-09-30T12:36:43;23.90;38.40
81210;DHT22;70685;52.496;13.420;2023-09-30T12:39:15;23.80;38.20
81210;DHT22;70685;52.496;13.420;2023-09-30T12:41:43;23.80;37.90
81210;DHT22;70685;52.496;13.420;2023-09-30T12:44:10;23.90;37.70
81210;DHT22;70685;52.496;13.420;2023-09-30T12:46:36;23.80;37.50
81210;DHT22;70685;52.496;13.420;2023-09-30T12:49:11;23.60;38.40
81210;DHT22;70685;52.496;13.420;2023-09-30T12:51:39;23.40;38.60
81210;DHT22;70685;52.496;13.420;2023-09-30T12:54:05;23.20;38.60
81210;DHT22;70685;52.496;13.420;2023-09-30T12:56:30;23.10;40.40
81210;DHT22;70685;52.496;13.420;2023-09-30T12:58:57;23.10;39.50
81210;DHT22;70685;52.496;13.420;2023-09-30T13:01:23;23.20;38.40
81210;DHT22;70685;52.496;13.420;2023-09-30T13:03:53;23.30;37.70
81210;DHT22;70685;52.496;13.420;2023-09-30T13:06:22;23.30;37.60
81210;DHT22;70685;52.496;13.420;2023-09-30T13:08:52;23.30;37.90
81210;DHT22;70685;52.496;13.420;2023-09-30T13:11:18;23.20;38.20
81210;DHT22;70685;52.496;13.420;2023-09-30T13:13:46;23.40;38.70
81210;DHT22;70685;52.496;13.420;2023-09-30T13:16:12;23.30;39.00
81210;DHT22;70685;52.496;13.420;2023-09-30T13:18:40;23.30;38.30
81210;DHT22;70685;52.496;13.420;2023-09-30T13:21:06;23.50;37.70
81210;DHT22;70685;52.496;13.420;2023-09-30T13:23:34;23.50;37.30
81210;DHT22;70685;52.496;13.420;2023-09-30T13:26:04;23.30;37.10
81210;DHT22;70685;52.496;13.420;2023-09-30T13:28:30;23.00;38.00
81210;DHT22;70685;52.496;13.420;2023-09-30T13:30:58;22.70;38.40
81210;DHT22;70685;52.496;13.420;2023-09-30T13:33:45;22.50;38.50
81210;DHT22;70685;52.496;13.420;2023-09-30T13:36:35;22.50;38.50
81210;DHT22;70685;52.496;13.420;2023-09-30T13:39:01;22.50;39.10
81210;DHT22;70685;52.496;13.420;2023-09-30T13:41:29;22.50;39.80
81210;DHT22;70685;52.496;13.420;2023-09-30T13:43:55;22.70;39.60
81210;DHT22;70685;52.496;13.420;2023-09-30T13:46:21;22.90;38.30
81210;DHT22;70685;52.496;13.420;2023-09-30T13:48:49;22.90;38.20
81210;DHT22;70685;52.496;13.420;2023-09-30T13:51:18;23.00;39.30
81210;DHT22;70685;52.496;13.420;2023-09-30T13:53:45;23.10;38.20
81210;DHT22;70685;52.496;13.420;2023-09-30T13:56:11;23.20;37.30
81210;DHT22;70685;52.496;13.420;2023-09-30T13:58:42;23.30;38.30
81210;DHT22;70685;52.496;13.420;2023-09-30T14:01:07;23.20;37.70
81210;DHT22;70685;52.496;13.420;2023-09-30T14:03:33;23.20;38.00
81210;DHT22;70685;52.496;13.420;2023-09-30T14:05:59;23.00;37.90
81210;DHT22;70685;52.496;13.420;2023-09-30T14:08:29;23.00;38.00
81210;DHT22;70685;52.496;13.420;2023-09-30T14:10:58;22.90;38.10
81210;DHT22;70685;52.496;13.420;2023-09-30T14:13:24;22.90;38.30
81210;DHT22;70685;52.496;13.420;2023-09-30T14:15:49;22.70;38.30
81210;DHT22;70685;52.496;13.420;2023-09-30T14:18:15;22.70;39.30
81210;DHT22;70685;52.496;13.420;2023-09-30T14:20:41;22.70;38.60
81210;DHT22;70685;52.496;13.420;2023-09-30T14:23:06;22.70;38.40
81210;DHT22;70685;52.496;13.420;2023-09-30T14:25:35;22.70;38.10
81210;DHT22;70685;52.496;13.420;2023-09-30T14:28:03;22.60;37.90
81210;DHT22;70685;52.496;13.420;2023-09-30T14:30:31;22.50;37.50
81210;DHT22;70685;52.496;13.420;2023-09-30T14:32:58;22.40;38.10
81210;DHT22;70685;52.496;13.420;2023-09-30T14:35:24;22.30;38.60
81210;DHT22;70685;52.496;13.420;2023-09-30T14:37:50;22.30;38.90
81210;DHT22;70685;52.496;13.420;2023-09-30T14:40:19;22.30;39.10
81210;DHT22;70685;52.496;13.420;2023-09-30T14:42:47;22.30;39.00
81210;DHT22;70685;52.496;13.420;2023-09-30T14:45:17;22.30;39.10
81210;DHT22;70685;52.496;13.420;2023-09-30T14:47:43;22.30;39.10
81210;DHT22;70685;52.496;13.420;2023-09-30T14:50:11;22.20;39.50
81210;DHT22;70685;52.496;13.420;2023-09-30T14:52:37;22.20;39.70
81210;DHT22;70685;52.496;13.420;2023-09-30T14:55:07;22.10;39.10
81210;DHT22;70685;52.496;13.420;2023-09-30T14:57:33;22.00;38.90
81210;DHT22;70685;52.496;13.420;2023-09-30T14:59:59;21.90;39.10
81210;DHT22;70685;52.496;13.420;2023-09-30T15:02:29;21.80;38.90
81210;DHT22;70685;52.496;13.420;2023-09-30T15:04:55;21.70;39.20
81210;DHT22;70685;52.496;13.420;2023-09-30T15:07:24;21.60;39.80
81210;DHT22;70685;52.496;13.420;2023-09-30T15:09:50;21.40;40.20
81210;DHT22;70685;52.496;13.420;2023-09-30T15:12:17;21.30;40.50
81210;DHT22;70685;52.496;13.420;2023-09-30T15:14:49;21.20;40.80
81210;DHT22;70685;52.496;13.420;2023-09-30T15:17:16;21.20;41.20
81210;DHT22;70685;52.496;13.420;2023-09-30T15:19:42;21.10;41.80
81210;DHT22;70685;52.496;13.420;2023-09-30T15:22:11;21.00;42.00
81210;DHT22;70685;52.496;13.420;2023-09-30T15:24:42;21.00;41.80
81210;DHT22;70685;52.496;13.420;2023-09-30T15:27:10;21.00;41.90
81210;DHT22;70685;52.496;13.420;2023-09-30T15:29:38;20.90;42.40
81210;DHT22;70685;52.496;13.420;2023-09-30T15:32:03;20.80;42.60
81210;DHT22;70685;52.496;13.420;2023-09-30T15:34:35;20.80;43.00
81210;DHT22;70685;52.496;13.420;2023-09-30T15:37:06;20.70;42.60
81210;DHT22;70685;52.496;13.420;2023-09-30T15:39:40;20.70;42.80
81210;DHT22;70685;52.496;13.420;2023-09-30T15:42:08;20.60;43.20
81210;DHT22;70685;52.496;13.420;2023-09-30T15:44:37;20.50;43.10
81210;DHT22;70685;52.496;13.420;2023-09-30T15:47:06;20.40;43.80
81210;DHT22;70685;52.496;13.420;2023-09-30T15:49:37;20.20;44.30
81210;DHT22;70685;52.496;13.420;2023-09-30T15:52:08;20.20;44.20
81210;DHT22;70685;52.496;13.420;2023-09-30T15:54:34;20.20;44.60